sensor_id;sensor_type;location;lat;lon;timestamp;P1;durP1;ratioP1;P2;durP2;ratioP2
75112;SDS011;63692;47.338;8.520;2023-09-07T07:07:05;10.15;;;5.82;;
75112;SDS011;63692;47.338;8.520;2023-09-07T07:35:09;9.85;;;5.55;;
75112;SDS011;63692;47.338;8.520;2023-09-07T07:37:34;12.98;;;5.57;;
75112;SDS011;63692;47.338;8.520;2023-09-07T07:40:00;9.13;;;5.50;;
75112;SDS011;63692;47.338;8.520;2023-09-07T07:42:25;7.78;;;5.28;;
75112;SDS011;63692;47.338;8.520;2023-09-07T07:44:51;11.52;;;6.00;;
75112;SDS011;63692;47.338;8.520;2023-09-07T07:47:17;11.55;;;5.97;;
75112;SDS011;63692;47.338;8.520;2023-09-07T07:49:42;10.38;;;5.88;;
75112;SDS011;63692;47.338;8.520;2023-09-07T07:52:08;10.98;;;5.43;;
75112;SDS011;63692;47.338;8.520;2023-09-07T07:54:34;11.82;;;6.55;;
75112;SDS011;63692;47.338;8.520;2023-09-07T07:57:00;11.38;;;5.93;;
75112;SDS011;63692;47.338;8.520;2023-09-07T07:59:25;12.18;;;6.30;;
75112;SDS011;63692;47.338;8.520;2023-09-07T08:01:51;9.65;;;5.07;;
75112;SDS011;63692;47.338;8.520;2023-09-07T08:04:17;11.57;;;5.50;;
75112;SDS011;63692;47.338;8.520;2023-09-07T08:06:42;13.10;;;6.15;;
75112;SDS011;63692;47.338;8.520;2023-09-07T08:09:08;11.85;;;5.90;;
75112;SDS011;63692;47.338;8.520;2023-09-07T08:11:35;13.85;;;6.05;;
75112;SDS011;63692;47.338;8.520;2023-09-07T08:14:01;10.85;;;5.70;;
75112;SDS011;63692;47.338;8.520;2023-09-07T08:16:27;8.88;;;4.78;;
75112;SDS011;63692;47.338;8.520;2023-09-07T08:18:52;11.60;;;4.65;;
75112;SDS011;63692;47.338;8.520;2023-09-07T08:21:18;11.00;;;5.70;;
75112;SDS011;63692;47.338;8.520;2023-09-07T08:23:43;8.88;;;4.72;;
75112;SDS011;63692;47.338;8.520;2023-09-07T08:26:09;7.85;;;4.82;;
75112;SDS011;63692;47.338;8.520;2023-09-07T08:28:35;12.23;;;5.82;;
75112;SDS011;63692;47.338;8.520;2023-09-07T08:31:00;11.65;;;6.03;;
75112;SDS011;63692;47.338;8.520;2023-09-07T08:33:26;9.90;;;5.80;;
75112;SDS011;63692;47.338;8.520;2023-09-07T08:35:58;10.02;;;5.72;;
75112;SDS011;63692;47.338;8.520;2023-09-07T08:38:25;8.63;;;5.88;;
75112;SDS011;63692;47.338;8.520;2023-09-07T08:40:53;9.23;;;6.35;;
75112;SDS011;63692;47.338;8.520;2023-09-07T08:43:20;13.57;;;7.00;;
75112;SDS011;63692;47.338;8.520;2023-09-07T08:45:46;10.85;;;6.93;;
75112;SDS011;63692;47.338;8.520;2023-09-07T08:48:16;11.48;;;5.85;;
75112;SDS011;63692;47.338;8.520;2023-09-07T08:50:44;9.52;;;6.13;;
75112;SDS011;63692;47.338;8.520;2023-09-07T08:53:16;11.77;;;6.22;;
75112;SDS011;63692;47.338;8.520;2023-09-07T08:55:44;10.02;;;5.60;;
75112;SDS011;63692;47.338;8.520;2023-09-07T08:58:09;11.18;;;6.10;;
75112;SDS011;63692;47.338;8.520;2023-09-07T09:00:35;14.60;;;5.75;;
75112;SDS011;63692;47.338;8.520;2023-09-07T09:03:02;18.02;;;7.07;;
75112;SDS011;63692;47.338;8.520;2023-09-07T09:05:28;12.68;;;6.40;;
75112;SDS011;63692;47.338;8.520;2023-09-07T09:08:02;12.55;;;7.20;;
75112;SDS011;63692;47.338;8.520;2023-09-07T09:10:29;16.13;;;6.63;;
75112;SDS011;63692;47.338;8.520;2023-09-07T09:12:55;12.20;;;6.38;;
75112;SDS011;63692;47.338;8.520;2023-09-07T09:15:21;11.82;;;7.10;;
75112;SDS011;63692;47.338;8.520;2023-09-07T09:17:47;12.52;;;6.88;;
75112;SDS011;63692;47.338;8.520;2023-09-07T09:20:22;12.35;;;6.95;;
75112;SDS011;63692;47.338;8.520;2023-09-07T09:22:53;10.10;;;6.32;;
75112;SDS011;63692;47.338;8.520;2023-09-07T09:25:19;10.43;;;6.10;;
75112;SDS011;63692;47.338;8.520;2023-09-07T09:27:46;11.32;;;6.75;;
75112;SDS011;63692;47.338;8.520;2023-09-07T09:30:13;11.18;;;7.60;;
75112;SDS011;63692;47.338;8.520;2023-09-07T09:32:41;12.48;;;7.22;;
75112;SDS011;63692;47.338;8.520;2023-09-07T09:35:08;10.07;;;6.45;;
75112;SDS011;63692;47.338;8.520;2023-09-07T09:37:34;12.93;;;6.70;;
75112;SDS011;63692;47.338;8.520;2023-09-07T09:40:16;12.30;;;7.10;;
75112;SDS011;63692;47.338;8.520;2023-09-07T09:42:42;10.60;;;6.82;;
75112;SDS011;63692;47.338;8.520;2023-09-07T09:45:09;11.90;;;5.70;;
75112;SDS011;63692;47.338;8.520;2023-09-07T09:47:42;15.32;;;6.53;;
75112;SDS011;63692;47.338;8.520;2023-09-07T09:50:08;11.80;;;6.10;;
75112;SDS011;63692;47.338;8.520;2023-09-07T09:52:35;10.95;;;6.32;;
75112;SDS011;63692;47.338;8.520;2023-09-07T09:55:05;12.40;;;6.40;;
75112;SDS011;63692;47.338;8.520;2023-09-07T09:57:33;14.88;;;6.88;;
75112;SDS011;63692;47.338;8.520;2023-09-07T10:00:03;13.98;;;6.85;;
75112;SDS011;63692;47.338;8.520;2023-09-07T10:05:27;11.68;;;6.57;;
75112;SDS011;63692;47.338;8.520;2023-09-07T10:07:59;10.07;;;6.20;;
75112;SDS011;63692;47.338;8.520;2023-09-07T10:10:31;12.18;;;6.38;;
75112;SDS011;63692;47.338;8.520;2023-09-07T10:12:59;10.63;;;6.35;;
75112;SDS011;63692;47.338;8.520;2023-09-07T10:15:26;12.13;;;7.68;;
75112;SDS011;63692;47.338;8.520;2023-09-07T10:20:48;11.73;;;6.75;;
75112;SDS011;63692;47.338;8.520;2023-09-07T10:23:14;13.65;;;6.78;;
75112;SDS011;63692;47.338;8.520;2023-09-07T10:25:39;16.45;;;6.70;;
75112;SDS011;63692;47.338;8.520;2023-09-07T10:28:05;13.38;;;6.75;;
75112;SDS011;63692;47.338;8.520;2023-09-07T10:30:31;14.40;;;8.05;;
75112;SDS011;63692;47.338;8.520;2023-09-07T10:32:58;20.17;;;7.50;;
75112;SDS011;63692;47.338;8.520;2023-09-07T10:35:23;15.80;;;7.00;;
75112;SDS011;63692;47.338;8.520;2023-09-07T10:37:50;10.77;;;6.13;;
75112;SDS011;63692;47.338;8.520;2023-09-07T10:40:23;14.80;;;6.18;;
75112;SDS011;63692;47.338;8.520;2023-09-07T10:43:00;17.20;;;8.05;;
75112;SDS011;63692;47.338;8.520;2023-09-07T10:45:27;11.77;;;6.80;;
75112;SDS011;63692;47.338;8.520;2023-09-07T10:47:53;16.10;;;7.57;;
75112;SDS011;63692;47.338;8.520;2023-09-07T10:50:18;17.48;;;6.30;;
75112;SDS011;63692;47.338;8.520;2023-09-07T10:52:44;14.85;;;6.97;;
75112;SDS011;63692;47.338;8.520;2023-09-07T10:55:10;15.40;;;7.28;;
75112;SDS011;63692;47.338;8.520;2023-09-07T10:57:43;12.90;;;6.95;;
75112;SDS011;63692;47.338;8.520;2023-09-07T11:00:12;12.90;;;6.57;;
75112;SDS011;63692;47.338;8.520;2023-09-07T11:02:39;12.10;;;6.72;;
75112;SDS011;63692;47.338;8.520;2023-09-07T11:05:06;15.32;;;7.63;;
75112;SDS011;63692;47.338;8.520;2023-09-07T11:07:32;13.43;;;6.85;;
75112;SDS011;63692;47.338;8.520;2023-09-07T11:09:59;12.65;;;6.65;;
75112;SDS011;63692;47.338;8.520;2023-09-07T11:12:25;11.35;;;6.70;;
75112;SDS011;63692;47.338;8.520;2023-09-07T11:14:51;14.25;;;7.15;;
75112;SDS011;63692;47.338;8.520;2023-09-07T11:17:18;11.45;;;6.97;;
75112;SDS011;63692;47.338;8.520;2023-09-07T11:19:43;14.10;;;6.65;;
75112;SDS011;63692;47.338;8.520;2023-09-07T11:22:10;12.52;;;7.22;;
75112;SDS011;63692;47.338;8.520;2023-09-07T11:24:36;14.88;;;7.45;;
75112;SDS011;63692;47.338;8.520;2023-09-07T11:27:03;13.00;;;7.13;;
75112;SDS011;63692;47.338;8.520;2023-09-07T11:29:32;14.13;;;7.32;;
75112;SDS011;63692;47.338;8.520;2023-09-07T11:32:10;13.35;;;7.38;;
75112;SDS011;63692;47.338;8.520;2023-09-07T11:34:48;9.57;;;7.07;;
75112;SDS011;63692;47.338;8.520;2023-09-07T11:37:14;11.25;;;7.60;;
75112;SDS011;63692;47.338;8.520;2023-09-07T11:39:40;11.13;;;7.07;;
75112;SDS011;63692;47.338;8.520;2023-09-07T11:42:06;13.45;;;6.82;;
75112;SDS011;63692;47.338;8.520;2023-09-07T11:44:32;12.88;;;6.80;;
75112;SDS011;63692;47.338;8.520;2023-09-07T11:46:57;11.15;;;7.00;;
75112;SDS011;63692;47.338;8.520;2023-09-07T11:49:23;13.55;;;6.68;;
75112;SDS011;63692;47.338;8.520;2023-09-07T11:51:49;12.35;;;6.35;;
75112;SDS011;63692;47.338;8.520;2023-09-07T11:54:15;9.88;;;6.28;;
75112;SDS011;63692;47.338;8.520;2023-09-07T11:56:40;11.20;;;6.65;;
75112;SDS011;63692;47.338;8.520;2023-09-07T11:59:08;11.95;;;7.38;;
75112;SDS011;63692;47.338;8.520;2023-09-07T12:01:34;11.55;;;6.70;;
75112;SDS011;63692;47.338;8.520;2023-09-07T12:04:00;15.32;;;7.30;;
75112;SDS011;63692;47.338;8.520;2023-09-07T12:06:26;9.85;;;6.55;;
75112;SDS011;63692;47.338;8.520;2023-09-07T12:11:19;10.52;;;6.43;;
75112;SDS011;63692;47.338;8.520;2023-09-07T12:13:44;13.50;;;6.30;;
75112;SDS011;63692;47.338;8.520;2023-09-07T12:16:10;8.82;;;5.90;;
75112;SDS011;63692;47.338;8.520;2023-09-07T12:18:35;8.85;;;5.70;;
75112;SDS011;63692;47.338;8.520;2023-09-07T12:21:01;8.98;;;6.13;;
75112;SDS011;63692;47.338;8.520;2023-09-07T12:23:27;8.30;;;5.75;;
75112;SDS011;63692;47.338;8.520;2023-09-07T12:25:54;7.07;;;5.13;;
75112;SDS011;63692;47.338;8.520;2023-09-07T12:28:20;9.63;;;5.95;;
75112;SDS011;63692;47.338;8.520;2023-09-07T12:30:46;9.75;;;5.65;;
75112;SDS011;63692;47.338;8.520;2023-09-07T12:33:12;9.98;;;5.63;;
75112;SDS011;63692;47.338;8.520;2023-09-07T12:35:37;8.85;;;5.20;;
75112;SDS011;63692;47.338;8.520;2023-09-07T12:38:03;8.75;;;5.10;;
75112;SDS011;63692;47.338;8.520;2023-09-07T12:40:29;10.98;;;5.50;;
75112;SDS011;63692;47.338;8.520;2023-09-07T12:42:54;8.77;;;5.60;;
75112;SDS011;63692;47.338;8.520;2023-09-07T12:45:20;8.20;;;5.28;;
75112;SDS011;63692;47.338;8.520;2023-09-07T12:47:46;6.13;;;4.70;;
75112;SDS011;63692;47.338;8.520;2023-09-07T12:50:11;8.63;;;5.30;;
75112;SDS011;63692;47.338;8.520;2023-09-07T12:52:37;8.63;;;5.32;;
75112;SDS011;63692;47.338;8.520;2023-09-07T12:55:04;7.53;;;4.75;;
75112;SDS011;63692;47.338;8.520;2023-09-07T12:57:30;8.35;;;4.50;;
75112;SDS011;63692;47.338;8.520;2023-09-07T12:59:56;7.75;;;4.55;;
75112;SDS011;63692;47.338;8.520;2023-09-07T13:02:21;9.00;;;4.55;;
75112;SDS011;63692;47.338;8.520;2023-09-07T13:04:47;7.35;;;4.20;;
75112;SDS011;63692;47.338;8.520;2023-09-07T13:07:13;7.68;;;4.40;;
75112;SDS011;63692;47.338;8.520;2023-09-07T13:09:38;11.23;;;4.68;;
75112;SDS011;63692;47.338;8.520;2023-09-07T13:12:04;9.77;;;4.20;;
75112;SDS011;63692;47.338;8.520;2023-09-07T13:14:33;7.18;;;4.13;;
75112;SDS011;63692;47.338;8.520;2023-09-07T13:16:59;8.13;;;4.43;;
75112;SDS011;63692;47.338;8.520;2023-09-07T13:19:24;6.57;;;4.22;;
75112;SDS011;63692;47.338;8.520;2023-09-07T13:21:50;8.00;;;4.90;;
75112;SDS011;63692;47.338;8.520;2023-09-07T13:24:16;8.93;;;4.28;;
75112;SDS011;63692;47.338;8.520;2023-09-07T13:26:41;6.70;;;4.50;;
75112;SDS011;63692;47.338;8.520;2023-09-07T13:29:11;9.90;;;4.20;;
75112;SDS011;63692;47.338;8.520;2023-09-07T13:31:36;8.13;;;4.28;;
75112;SDS011;63692;47.338;8.520;2023-09-07T13:34:02;6.85;;;4.22;;
75112;SDS011;63692;47.338;8.520;2023-09-07T13:36:28;8.32;;;4.40;;
75112;SDS011;63692;47.338;8.520;2023-09-07T13:38:54;7.90;;;3.95;;
75112;SDS011;63692;47.338;8.520;2023-09-07T13:41:22;8.25;;;4.20;;
75112;SDS011;63692;47.338;8.520;2023-09-07T13:43:48;5.95;;;3.47;;
75112;SDS011;63692;47.338;8.520;2023-09-07T13:46:13;6.00;;;3.80;;
75112;SDS011;63692;47.338;8.520;2023-09-07T13:48:39;6.20;;;3.97;;
75112;SDS011;63692;47.338;8.520;2023-09-07T13:51:04;8.32;;;3.75;;
75112;SDS011;63692;47.338;8.520;2023-09-07T13:53:31;9.98;;;4.13;;
75112;SDS011;63692;47.338;8.520;2023-09-07T13:55:56;6.70;;;4.18;;
75112;SDS011;63692;47.338;8.520;2023-09-07T13:58:22;6.32;;;4.90;;
75112;SDS011;63692;47.338;8.520;2023-09-07T14:00:47;9.02;;;5.05;;
75112;SDS011;63692;47.338;8.520;2023-09-07T14:03:15;7.88;;;4.57;;
75112;SDS011;63692;47.338;8.520;2023-09-07T14:05:41;7.03;;;3.65;;
75112;SDS011;63692;47.338;8.520;2023-09-07T14:08:07;8.50;;;4.60;;
75112;SDS011;63692;47.338;8.520;2023-09-07T14:10:32;7.40;;;4.20;;
75112;SDS011;63692;47.338;8.520;2023-09-07T14:12:58;12.20;;;4.72;;
75112;SDS011;63692;47.338;8.520;2023-09-07T14:15:24;10.98;;;3.83;;
75112;SDS011;63692;47.338;8.520;2023-09-07T14:17:49;8.95;;;3.97;;
75112;SDS011;63692;47.338;8.520;2023-09-07T14:20:15;6.47;;;3.63;;
75112;SDS011;63692;47.338;8.520;2023-09-07T14:22:41;11.32;;;4.20;;
75112;SDS011;63692;47.338;8.520;2023-09-07T14:25:07;5.53;;;3.80;;
75112;SDS011;63692;47.338;8.520;2023-09-07T14:27:33;8.73;;;4.03;;
75112;SDS011;63692;47.338;8.520;2023-09-07T14:29:58;9.30;;;3.80;;
75112;SDS011;63692;47.338;8.520;2023-09-07T14:32:24;8.38;;;3.92;;
75112;SDS011;63692;47.338;8.520;2023-09-07T14:34:49;8.55;;;4.20;;
75112;SDS011;63692;47.338;8.520;2023-09-07T14:37:15;9.13;;;4.20;;
75112;SDS011;63692;47.338;8.520;2023-09-07T14:39:41;6.93;;;3.90;;
75112;SDS011;63692;47.338;8.520;2023-09-07T14:42:12;8.65;;;4.10;;
75112;SDS011;63692;47.338;8.520;2023-09-07T14:44:41;6.25;;;3.58;;
75112;SDS011;63692;47.338;8.520;2023-09-07T14:47:07;6.63;;;3.80;;
75112;SDS011;63692;47.338;8.520;2023-09-07T14:49:32;5.63;;;4.00;;
75112;SDS011;63692;47.338;8.520;2023-09-07T14:51:58;12.70;;;3.97;;
75112;SDS011;63692;47.338;8.520;2023-09-07T14:54:24;8.30;;;3.75;;
75112;SDS011;63692;47.338;8.520;2023-09-07T14:56:50;13.02;;;4.22;;
75112;SDS011;63692;47.338;8.520;2023-09-07T14:59:15;8.80;;;3.97;;
75112;SDS011;63692;47.338;8.520;2023-09-07T15:01:41;9.90;;;4.10;;
75112;SDS011;63692;47.338;8.520;2023-09-07T15:04:07;11.45;;;4.00;;
75112;SDS011;63692;47.338;8.520;2023-09-07T15:06:33;8.55;;;3.70;;
75112;SDS011;63692;47.338;8.520;2023-09-07T15:08:59;6.00;;;3.53;;
75112;SDS011;63692;47.338;8.520;2023-09-07T15:11:25;6.60;;;3.47;;
75112;SDS011;63692;47.338;8.520;2023-09-07T15:13:50;10.80;;;3.92;;
75112;SDS011;63692;47.338;8.520;2023-09-07T15:16:18;5.03;;;3.38;;
75112;SDS011;63692;47.338;8.520;2023-09-07T15:18:44;6.47;;;3.42;;
75112;SDS011;63692;47.338;8.520;2023-09-07T15:21:09;10.23;;;3.78;;
75112;SDS011;63692;47.338;8.520;2023-09-07T15:23:35;8.73;;;4.10;;
75112;SDS011;63692;47.338;8.520;2023-09-07T15:26:01;5.90;;;3.80;;
75112;SDS011;63692;47.338;8.520;2023-09-07T15:28:27;8.80;;;4.00;;
75112;SDS011;63692;47.338;8.520;2023-09-07T15:30:52;7.45;;;3.72;;
75112;SDS011;63692;47.338;8.520;2023-09-07T15:33:18;7.53;;;3.92;;
75112;SDS011;63692;47.338;8.520;2023-09-07T15:35:46;9.63;;;3.90;;
75112;SDS011;63692;47.338;8.520;2023-09-07T15:38:11;6.75;;;4.00;;
75112;SDS011;63692;47.338;8.520;2023-09-07T15:40:37;8.57;;;4.03;;
75112;SDS011;63692;47.338;8.520;2023-09-07T15:43:04;7.43;;;3.80;;
75112;SDS011;63692;47.338;8.520;2023-09-07T15:45:29;7.90;;;3.72;;
75112;SDS011;63692;47.338;8.520;2023-09-07T15:47:55;8.27;;;4.05;;
75112;SDS011;63692;47.338;8.520;2023-09-07T15:50:21;13.15;;;3.97;;
75112;SDS011;63692;47.338;8.520;2023-09-07T15:52:47;8.15;;;4.00;;
75112;SDS011;63692;47.338;8.520;2023-09-07T15:55:14;6.20;;;3.88;;
75112;SDS011;63692;47.338;8.520;2023-09-07T15:57:40;7.28;;;3.85;;
75112;SDS011;63692;47.338;8.520;2023-09-07T16:00:07;12.90;;;4.00;;
75112;SDS011;63692;47.338;8.520;2023-09-07T16:02:33;8.68;;;3.90;;
75112;SDS011;63692;47.338;8.520;2023-09-07T16:04:59;7.60;;;3.92;;
75112;SDS011;63692;47.338;8.520;2023-09-07T16:07:24;13.20;;;4.13;;
75112;SDS011;63692;47.338;8.520;2023-09-07T16:09:50;9.00;;;3.67;;
75112;SDS011;63692;47.338;8.520;2023-09-07T16:12:16;7.90;;;3.80;;
75112;SDS011;63692;47.338;8.520;2023-09-07T16:14:41;8.00;;;3.88;;
75112;SDS011;63692;47.338;8.520;2023-09-07T16:17:07;9.38;;;3.90;;
75112;SDS011;63692;47.338;8.520;2023-09-07T16:19:32;7.10;;;4.03;;
75112;SDS011;63692;47.338;8.520;2023-09-07T16:21:58;8.13;;;4.40;;
75112;SDS011;63692;47.338;8.520;2023-09-07T16:24:25;7.28;;;4.03;;
75112;SDS011;63692;47.338;8.520;2023-09-07T16:26:50;7.93;;;3.97;;
75112;SDS011;63692;47.338;8.520;2023-09-07T16:29:16;5.80;;;4.05;;
75112;SDS011;63692;47.338;8.520;2023-09-07T16:34:13;13.13;;;4.30;;
75112;SDS011;63692;47.338;8.520;2023-09-07T16:36:39;11.50;;;4.30;;
75112;SDS011;63692;47.338;8.520;2023-09-07T16:39:05;7.88;;;4.03;;
75112;SDS011;63692;47.338;8.520;2023-09-07T16:41:32;13.95;;;4.60;;
75112;SDS011;63692;47.338;8.520;2023-09-07T16:46:27;8.48;;;4.50;;
75112;SDS011;63692;47.338;8.520;2023-09-07T16:48:53;18.05;;;5.07;;
75112;SDS011;63692;47.338;8.520;2023-09-07T16:53:59;14.25;;;4.43;;
75112;SDS011;63692;47.338;8.520;2023-09-07T16:56:25;11.13;;;5.30;;
75112;SDS011;63692;47.338;8.520;2023-09-07T16:58:53;16.70;;;5.10;;
75112;SDS011;63692;47.338;8.520;2023-09-07T17:01:19;11.48;;;5.03;;
75112;SDS011;63692;47.338;8.520;2023-09-07T17:03:47;9.35;;;5.18;;
75112;SDS011;63692;47.338;8.520;2023-09-07T17:06:12;10.27;;;4.93;;
75112;SDS011;63692;47.338;8.520;2023-09-07T17:08:42;14.13;;;4.80;;
75112;SDS011;63692;47.338;8.520;2023-09-07T17:11:11;11.98;;;4.63;;
75112;SDS011;63692;47.338;8.520;2023-09-07T17:13:36;15.85;;;5.03;;
75112;SDS011;63692;47.338;8.520;2023-09-07T17:16:04;13.25;;;4.80;;
75112;SDS011;63692;47.338;8.520;2023-09-07T17:56:23;10.10;;;4.80;;
75112;SDS011;63692;47.338;8.520;2023-09-07T18:01:18;11.27;;;5.20;;
